Time;durP1;ratioP1;P1;durP2;ratioP2;P2;SDS_P1;SDS_P2;PMS_P1;PMS_P2;Temp;Humidity;BMP_temperature;BMP_pressure;BME280_temperature;BME280_humidity;BME280_pressure;Samples;Min_cycle;Max_cycle;Signal;HPM_P1;HPM_P2
2022/08/17 00:00:29;;;;;;;7.10;2.80;;;20.40;99.90;;;;;;5071936;28;20411;-83
2022/08/17 00:03:12;;;;;;;7.25;2.42;;;20.40;99.90;;;;;;5070846;28;20029;-83
2022/08/17 00:05:44;;;;;;;5.35;2.20;;;20.40;99.90;;;;;;5070444;28;20515;-82
2022/08/17 00:08:13;;;;;;;5.75;2.22;;;20.40;99.90;;;;;;5070764;28;20405;-83
2022/08/17 00:10:40;;;;;;;7.68;2.20;;;20.30;99.90;;;;;;5071744;28;20028;-82
2022/08/17 00:13:24;;;;;;;3.95;2.45;;;20.30;99.90;;;;;;5070801;28;20062;-84
2022/08/17 00:15:50;;;;;;;5.82;2.95;;;20.30;99.90;;;;;;5065329;28;20025;-83
2022/08/17 00:18:17;;;;;;;5.82;2.60;;;20.20;99.90;;;;;;5070301;28;20061;-82
2022/08/17 00:20:42;;;;;;;9.70;2.65;;;20.20;99.90;;;;;;5070164;28;20383;-82
2022/08/17 00:23:14;;;;;;;2.88;2.47;;;20.20;99.90;;;;;;5069993;28;20504;-82
2022/08/17 00:25:41;;;;;;;4.15;2.22;;;20.10;99.90;;;;;;5070050;28;20025;-83
2022/08/17 00:28:07;;;;;;;3.67;2.88;;;20.00;99.90;;;;;;5069636;28;20084;-83
2022/08/17 00:30:34;;;;;;;13.02;2.75;;;20.00;99.90;;;;;;5069442;28;20060;-84
2022/08/17 00:33:06;;;;;;;5.13;2.47;;;19.90;99.90;;;;;;5070225;28;20047;-82
2022/08/17 00:35:33;;;;;;;5.75;2.60;;;19.80;99.90;;;;;;5069759;28;20477;-82
2022/08/17 00:37:58;;;;;;;5.63;2.40;;;19.70;99.90;;;;;;5070246;28;20021;-83
2022/08/17 00:40:24;;;;;;;4.82;2.40;;;19.70;99.90;;;;;;5070765;28;20397;-83
2022/08/17 00:42:49;;;;;;;3.03;2.40;;;19.70;99.90;;;;;;5071372;28;20100;-83
2022/08/17 00:45:16;;;;;;;5.45;2.47;;;19.60;99.90;;;;;;5069634;28;20482;-83
2022/08/17 00:47:42;;;;;;;3.47;2.67;;;19.60;99.90;;;;;;5071277;28;20033;-82
2022/08/17 00:50:11;;;;;;;8.80;2.78;;;19.60;99.90;;;;;;5069553;28;20052;-83
2022/08/17 00:52:44;;;;;;;3.28;2.45;;;19.60;99.90;;;;;;5070375;28;20036;-82
2022/08/17 00:55:10;;;;;;;3.17;2.60;;;19.60;99.90;;;;;;5069455;28;20029;-82
2022/08/17 00:57:41;;;;;;;3.38;2.42;;;19.60;99.90;;;;;;5069600;28;20692;-83
2022/08/17 01:00:25;;;;;;;4.30;2.80;;;19.70;99.90;;;;;;5068723;28;20056;-82
2022/08/17 01:02:55;;;;;;;8.05;3.00;;;19.70;99.90;;;;;;5069433;28;20032;-84
2022/08/17 01:05:24;;;;;;;3.53;2.78;;;19.70;99.90;;;;;;5069068;28;20063;-83
2022/08/17 01:07:50;;;;;;;4.38;2.78;;;19.60;99.90;;;;;;5069257;28;20071;-83
2022/08/17 01:10:21;;;;;;;5.28;3.00;;;19.60;99.90;;;;;;5069552;28;20480;-82
2022/08/17 01:12:48;;;;;;;4.32;3.63;;;19.60;99.90;;;;;;5070908;28;20032;-83
2022/08/17 01:15:14;;;;;;;10.40;3.20;;;19.70;99.90;;;;;;5089106;28;20424;-83
2022/08/17 01:17:41;;;;;;;3.67;2.97;;;19.70;99.90;;;;;;5089625;28;20476;-83
2022/08/17 01:20:07;;;;;;;4.32;3.13;;;19.70;99.90;;;;;;5089622;28;20093;-83
2022/08/17 01:22:33;;;;;;;4.85;3.47;;;19.70;99.90;;;;;;5071708;28;20031;-83
2022/08/17 01:25:03;;;;;;;5.65;3.15;;;19.60;99.90;;;;;;5068717;28;20119;-82
2022/08/17 01:27:29;;;;;;;3.67;3.10;;;19.60;99.90;;;;;;5068703;28;20078;-82
2022/08/17 01:30:00;;;;;;;5.68;3.25;;;19.60;99.90;;;;;;5067953;28;20060;-83
2022/08/17 01:32:27;;;;;;;5.45;3.50;;;19.60;99.90;;;;;;5068682;28;20074;-82
2022/08/17 01:34:53;;;;;;;4.10;3.00;;;19.60;99.90;;;;;;5069086;28;20029;-83
2022/08/17 01:37:26;;;;;;;7.78;3.88;;;19.50;99.90;;;;;;5068487;28;20025;-83
2022/08/17 01:39:58;;;;;;;6.50;3.58;;;19.60;99.90;;;;;;5070866;28;20390;-83
2022/08/17 01:42:53;;;;;;;5.97;3.65;;;19.50;99.90;;;;;;5076557;28;20031;-82
2022/08/17 01:45:29;;;;;;;8.40;4.30;;;19.50;99.90;;;;;;5056196;28;20500;-82
2022/08/17 01:47:55;;;;;;;;;;;19.50;99.90;;;;;;5069624;28;20036;-83
2022/08/17 01:50:30;;;;;;;4.13;3.70;;;19.40;99.90;;;;;;5068529;28;19905;-83
2022/08/17 01:53:00;;;;;;;7.05;3.80;;;19.40;99.90;;;;;;5069660;28;20036;-82
2022/08/17 01:55:31;;;;;;;6.30;4.30;;;19.40;99.90;;;;;;5070085;28;20566;-83
2022/08/17 01:57:57;;;;;;;8.13;3.67;;;19.40;99.90;;;;;;5068660;28;20029;-83
2022/08/17 02:00:23;;;;;;;4.63;3.75;;;19.40;99.90;;;;;;5068053;28;20088;-82
2022/08/17 02:02:49;;;;;;;5.45;3.72;;;19.30;99.90;;;;;;5067610;28;20131;-83
2022/08/17 02:05:14;;;;;;;7.47;3.53;;;19.30;99.90;;;;;;5068433;28;20056;-83
2022/08/17 02:07:40;;;;;;;11.05;4.45;;;19.20;99.90;;;;;;5067901;28;20451;-83
2022/08/17 02:10:10;;;;;;;6.43;4.45;;;19.20;99.90;;;;;;5068074;28;20069;-83
2022/08/17 02:12:36;;;;;;;7.78;4.53;;;19.20;99.90;;;;;;5066971;28;20029;-83
2022/08/17 02:15:06;;;;;;;11.13;4.63;;;19.20;99.90;;;;;;5067464;28;20083;-83
2022/08/17 02:17:32;;;;;;;7.40;4.07;;;19.10;99.90;;;;;;5067619;28;20044;-83
2022/08/17 02:19:58;;;;;;;12.52;4.28;;;19.10;99.90;;;;;;5067872;28;20028;-84
2022/08/17 02:22:25;;;;;;;4.82;4.28;;;19.10;99.90;;;;;;5067696;28;20029;-83
2022/08/17 02:24:52;;;;;;;10.50;4.40;;;19.10;99.90;;;;;;5067061;28;20020;-83
2022/08/17 02:27:18;;;;;;;5.65;4.38;;;19.10;99.90;;;;;;5068732;28;20048;-83
2022/08/17 02:29:44;;;;;;;7.50;4.55;;;19.00;99.90;;;;;;5067137;28;20027;-83
2022/08/17 02:32:22;;;;;;;12.63;4.63;;;19.00;99.90;;;;;;5067813;28;20032;-83
2022/08/17 02:34:49;;;;;;;9.55;4.97;;;19.00;99.90;;;;;;5067528;28;20028;-83
2022/08/17 02:37:18;;;;;;;10.57;4.45;;;19.00;99.90;;;;;;5074734;28;20020;-83
2022/08/17 02:39:44;;;;;;;8.45;5.22;;;19.10;99.90;;;;;;5087793;28;20361;-83
2022/08/17 02:42:11;;;;;;;6.65;5.00;;;19.20;99.90;;;;;;5087760;28;20600;-83
2022/08/17 02:44:37;;;;;;;12.20;4.50;;;19.20;99.90;;;;;;5085756;28;20089;-83
2022/08/17 02:47:03;;;;;;;10.95;4.63;;;19.20;99.90;;;;;;5067331;28;20060;-84
2022/08/17 02:49:29;;;;;;;8.40;4.75;;;19.20;99.90;;;;;;5068838;28;20815;-83
2022/08/17 02:51:57;;;;;;;6.88;4.97;;;19.10;99.90;;;;;;5067176;28;20032;-83
2022/08/17 02:54:23;;;;;;;11.45;4.63;;;19.10;99.90;;;;;;5066917;28;20082;-82
2022/08/17 02:56:49;;;;;;;10.65;5.20;;;19.00;99.90;;;;;;5067641;28;20032;-83
2022/08/17 02:59:14;;;;;;;12.10;4.65;;;19.00;99.90;;;;;;5065705;28;20035;-83
2022/08/17 03:01:40;;;;;;;6.70;4.10;;;18.90;99.90;;;;;;5065577;28;20488;-83
2022/08/17 03:04:06;;;;;;;7.05;4.88;;;18.90;99.90;;;;;;5068004;28;20078;-83
2022/08/17 03:06:31;;;;;;;7.10;4.82;;;18.90;99.90;;;;;;5068174;28;20253;-83
2022/08/17 03:08:57;;;;;;;14.70;5.85;;;18.90;99.90;;;;;;5066909;28;20032;-83
2022/08/17 03:11:23;;;;;;;9.88;4.55;;;18.90;99.90;;;;;;5067352;28;20025;-83
2022/08/17 03:13:49;;;;;;;6.65;4.93;;;18.90;99.90;;;;;;5067025;28;20035;-82
2022/08/17 03:16:14;;;;;;;8.50;5.20;;;18.90;99.90;;;;;;5066655;28;20051;-82
2022/08/17 03:18:40;;;;;;;12.25;5.63;;;18.90;99.90;;;;;;5067105;28;20485;-83
2022/08/17 03:21:07;;;;;;;9.43;5.22;;;19.00;99.90;;;;;;5066240;28;20058;-83
2022/08/17 03:23:39;;;;;;;9.60;6.40;;;19.00;99.90;;;;;;5066257;28;20572;-82
2022/08/17 03:26:06;;;;;;;7.47;5.70;;;19.00;99.90;;;;;;5066285;28;20032;-83
2022/08/17 03:28:33;;;;;;;10.63;5.93;;;19.00;99.90;;;;;;5066667;28;20164;-81
2022/08/17 03:30:58;;;;;;;12.52;5.88;;;19.00;99.90;;;;;;5067826;28;20032;-85
2022/08/17 03:33:24;;;;;;;8.65;5.95;;;19.00;99.90;;;;;;5066456;28;20025;-83
2022/08/17 03:35:50;;;;;;;8.50;5.95;;;19.00;99.90;;;;;;5067447;28;20085;-82
2022/08/17 03:38:17;;;;;;;11.25;5.55;;;19.00;99.90;;;;;;5066811;28;20036;-82
2022/08/17 03:40:45;;;;;;;11.48;6.60;;;19.10;99.90;;;;;;5066420;28;20817;-82
2022/08/17 03:43:11;;;;;;;9.60;6.15;;;19.20;99.90;;;;;;5067362;28;20029;-82
2022/08/17 03:56:44;;;;;;;9.95;5.13;;;19.40;99.90;;;;;;5067808;28;20116;-83
2022/08/17 03:59:18;;;;;;;8.90;5.90;;;19.40;99.90;;;;;;5067064;28;20186;-82
2022/08/17 04:01:45;;;;;;;12.15;5.82;;;19.40;99.90;;;;;;5065724;28;20025;-82
2022/08/17 04:04:12;;;;;;;9.15;6.63;;;19.40;99.90;;;;;;5065715;28;20455;-83
2022/08/17 04:06:39;;;;;;;13.32;6.50;;;19.30;99.90;;;;;;5066336;28;20400;-82
2022/08/17 04:09:05;;;;;;;12.40;6.68;;;19.40;99.90;;;;;;5065678;28;20068;-83
2022/08/17 04:11:31;;;;;;;12.27;6.43;;;19.50;99.90;;;;;;5065990;28;20052;-82
2022/08/17 04:13:57;;;;;;;9.20;6.43;;;19.50;99.90;;;;;;5067084;28;20025;-82
2022/08/17 04:16:24;;;;;;;9.10;6.00;;;19.60;99.90;;;;;;5065708;28;20032;-83
2022/08/17 04:18:50;;;;;;;10.32;5.60;;;19.70;99.90;;;;;;5066844;28;20032;-82
2022/08/17 04:21:17;;;;;;;13.23;5.55;;;19.80;99.90;;;;;;5066387;28;20409;-83
2022/08/17 04:23:42;;;;;;;9.60;5.38;;;19.80;99.90;;;;;;5066087;28;20035;-82
2022/08/17 04:26:08;;;;;;;11.35;5.60;;;19.80;99.90;;;;;;5065353;28;20024;-82
2022/08/17 04:28:34;;;;;;;12.15;5.57;;;19.90;99.90;;;;;;5065181;28;20060;-82
2022/08/17 04:30:59;;;;;;;10.55;5.57;;;19.90;99.90;;;;;;5065645;28;20056;-82
2022/08/17 04:33:27;;;;;;;10.27;5.15;;;20.00;99.90;;;;;;5065283;28;20067;-82
2022/08/17 04:35:57;;;;;;;9.48;4.90;;;20.00;99.90;;;;;;5067993;28;20073;-82
2022/08/17 04:38:26;;;;;;;13.07;6.20;;;20.00;99.90;;;;;;5069036;28;20032;-82
2022/08/17 04:43:38;;;;;;;7.50;5.45;;;20.20;99.90;;;;;;5071044;28;20039;-82
2022/08/17 04:46:08;;;;;;;11.93;5.15;;;20.30;99.90;;;;;;5068155;28;20021;-82
2022/08/17 04:48:40;;;;;;;6.35;4.75;;;20.40;99.90;;;;;;5069044;28;20508;-82
2022/08/17 04:51:09;;;;;;;6.90;5.47;;;20.60;99.90;;;;;;5069155;28;20032;-83
2022/08/17 04:53:35;;;;;;;8.98;4.75;;;20.70;99.90;;;;;;5069035;28;20024;-84
2022/08/17 04:56:01;;;;;;;7.10;4.95;;;20.90;99.90;;;;;;5069166;28;20039;-83
2022/08/17 04:58:27;;;;;;;9.55;5.97;;;21.00;99.90;;;;;;5068422;28;20033;-83
2022/08/17 05:00:52;;;;;;;6.47;4.63;;;21.10;99.90;;;;;;5073001;28;20565;-82
2022/08/17 05:03:18;;;;;;;6.05;5.22;;;21.40;99.90;;;;;;5089171;28;20111;-83
2022/08/17 05:05:48;;;;;;;10.32;5.65;;;21.70;99.90;;;;;;5088979;28;20067;-82
2022/08/17 05:08:15;;;;;;;7.22;5.30;;;22.00;99.90;;;;;;5078440;28;20058;-82
2022/08/17 05:10:41;;;;;;;7.13;4.80;;;22.10;99.90;;;;;;5068094;28;20052;-83
2022/08/17 05:13:10;;;;;;;13.75;5.18;;;22.30;99.90;;;;;;5068611;28;20030;-82
2022/08/17 05:15:38;;;;;;;11.73;5.53;;;22.40;99.90;;;;;;5068662;28;20085;-83
2022/08/17 05:18:05;;;;;;;14.80;5.95;;;22.70;99.90;;;;;;5067318;28;20075;-83
2022/08/17 05:20:31;;;;;;;10.65;6.18;;;23.00;99.90;;;;;;5068378;28;20033;-82
2022/08/17 05:23:00;;;;;;;8.50;5.63;;;23.30;99.90;;;;;;5068670;28;20036;-83
2022/08/17 05:25:29;;;;;;;16.30;5.35;;;23.80;99.90;;;;;;5085510;28;20048;-83
2022/08/17 05:27:55;;;;;;;8.07;5.68;;;24.40;99.90;;;;;;5088876;28;20052;-83
2022/08/17 05:30:22;;;;;;;10.73;5.10;;;25.00;99.90;;;;;;5105010;28;20028;-82
2022/08/17 05:32:55;;;;;;;10.13;5.63;;;25.40;99.90;;;;;;5084596;28;20124;-82
2022/08/17 05:35:23;;;;;;;9.63;5.82;;;25.70;99.90;;;;;;5084673;28;20124;-82
2022/08/17 05:37:49;;;;;;;6.72;4.97;;;25.90;99.90;;;;;;5085306;28;20439;-82
2022/08/17 05:40:16;;;;;;;9.07;4.72;;;26.10;99.90;;;;;;5067550;28;20028;-83
2022/08/17 05:42:42;;;;;;;10.68;4.75;;;26.20;99.90;;;;;;5084035;28;20078;-84
2022/08/17 05:45:09;;;;;;;11.35;5.18;;;26.30;99.90;;;;;;5079219;28;20016;-84
2022/08/17 05:47:37;;;;;;;10.23;5.22;;;26.40;99.90;;;;;;5091716;28;20052;-83
2022/08/17 05:50:03;;;;;;;12.85;5.30;;;26.70;99.90;;;;;;5091226;28;20024;-82
2022/08/17 05:52:28;;;;;;;11.75;5.32;;;27.10;99.90;;;;;;5073060;28;20024;-83
2022/08/17 05:55:24;;;;;;;8.80;4.82;;;27.40;99.90;;;;;;5069806;28;20408;-83
2022/08/17 05:58:12;;;;;;;10.15;5.10;;;28.00;99.50;;;;;;5069027;28;20024;-83
2022/08/17 06:01:19;;;;;;;9.45;4.40;;;28.50;99.10;;;;;;5068002;28;20040;-84
2022/08/17 06:04:06;;;;;;;6.65;4.60;;;29.20;97.40;;;;;;5068085;28;20105;-83
2022/08/17 06:07:04;;;;;;;9.25;5.00;;;29.80;96.40;;;;;;5068338;28;20485;-81
2022/08/17 06:09:51;;;;;;;13.10;4.88;;;30.50;95.30;;;;;;5065832;28;20055;-81
2022/08/17 06:12:38;;;;;;;9.55;4.35;;;31.00;93.10;;;;;;5067618;28;20036;-82
2022/08/17 06:15:12;;;;;;;9.23;4.72;;;31.60;91.70;;;;;;5066589;28;20036;-81
2022/08/17 06:17:40;;;;;;;7.38;4.57;;;32.10;85.70;;;;;;5075903;28;20093;-81
2022/08/17 06:20:13;;;;;;;10.20;5.00;;;32.50;83.00;;;;;;5086144;28;20082;-81
2022/08/17 06:22:46;;;;;;;9.55;4.80;;;33.10;78.30;;;;;;5086716;28;20028;-81
2022/08/17 06:25:16;;;;;;;12.80;5.03;;;33.50;74.60;;;;;;5072392;28;20115;-81
2022/08/17 06:27:49;;;;;;;6.97;4.78;;;33.80;72.00;;;;;;5065802;28;20224;-81
2022/08/17 06:30:27;;;;;;;7.15;3.95;;;34.30;69.40;;;;;;5065865;28;20055;-81
2022/08/17 06:32:58;;;;;;;5.10;4.18;;;34.80;67.40;;;;;;5065737;28;20031;-81
2022/08/17 06:35:44;;;;;;;7.60;4.22;;;35.20;65.00;;;;;;5065775;28;20382;-81
2022/08/17 06:38:36;;;;;;;7.72;4.82;;;35.60;62.70;;;;;;5067294;28;20425;-82
2022/08/17 06:41:25;;;;;;;13.60;4.28;;;36.00;59.50;;;;;;5065331;28;20515;-81
2022/08/17 06:44:06;;;;;;;9.27;4.28;;;36.10;58.20;;;;;;5065966;28;20029;-81
2022/08/17 06:46:41;;;;;;;9.52;4.55;;;36.20;57.70;;;;;;5065520;28;20054;-81
2022/08/17 06:49:29;;;;;;;10.68;4.85;;;36.40;57.40;;;;;;5065220;28;20040;-81
2022/08/17 06:52:16;;;;;;;7.97;4.97;;;36.60;56.60;;;;;;5065619;28;20086;-83
2022/08/17 06:54:50;;;;;;;12.00;4.40;;;36.40;56.50;;;;;;5067114;28;20036;-80
2022/08/17 06:57:27;;;;;;;9.60;4.88;;;36.40;56.20;;;;;;5064575;28;20016;-80
2022/08/17 07:00:08;;;;;;;10.30;4.68;;;36.50;56.00;;;;;;5066995;28;20890;-81
2022/08/17 07:02:48;;;;;;;13.45;5.13;;;36.20;55.40;;;;;;5064888;28;20021;-81
2022/08/17 07:05:17;;;;;;;13.95;4.75;;;36.40;56.70;;;;;;5066734;28;20149;-81
2022/08/17 07:08:17;;;;;;;10.07;5.50;;;36.70;55.90;;;;;;5066372;28;20077;-81
2022/08/17 07:10:47;;;;;;;7.10;4.78;;;36.70;55.50;;;;;;5059309;28;20036;-81
2022/08/17 07:13:19;;;;;;;13.95;5.30;;;36.70;54.70;;;;;;5065015;28;20020;-80
2022/08/17 07:15:48;;;;;;;10.05;4.75;;;36.70;54.60;;;;;;5065649;28;20032;-80
2022/08/17 07:18:14;;;;;;;10.73;4.70;;;36.80;54.00;;;;;;5064451;28;20119;-81
2022/08/17 07:20:45;;;;;;;7.35;4.82;;;36.90;54.40;;;;;;5066174;28;20104;-81
2022/08/17 07:23:27;;;;;;;9.90;5.38;;;37.00;54.50;;;;;;5066483;28;20051;-80
2022/08/17 07:26:03;;;;;;;9.63;4.47;;;37.10;53.70;;;;;;5066076;28;20029;-81
2022/08/17 07:28:31;;;;;;;11.50;5.03;;;37.00;54.10;;;;;;5063957;28;20118;-80
2022/08/17 07:30:56;;;;;;;11.15;5.47;;;37.10;53.90;;;;;;5066113;28;20063;-80
2022/08/17 07:33:26;;;;;;;11.55;5.13;;;37.50;53.20;;;;;;5065867;28;20052;-80
2022/08/17 07:35:52;;;;;;;11.02;5.45;;;37.70;53.40;;;;;;5064931;28;20020;-80
2022/08/17 07:38:27;;;;;;;16.73;6.43;;;37.90;52.20;;;;;;5065829;28;20027;-81
2022/08/17 07:41:02;;;;;;;12.95;5.93;;;38.10;51.60;;;;;;5063952;28;20920;-79
2022/08/17 07:43:40;;;;;;;16.05;5.65;;;38.20;50.20;;;;;;5065920;28;20029;-81
2022/08/17 07:49:17;;;;;;;14.98;5.47;;;38.30;51.10;;;;;;5065708;28;20050;-81
2022/08/17 07:51:43;;;;;;;11.63;5.82;;;38.80;50.00;;;;;;5058874;28;20415;-82
2022/08/17 07:54:14;;;;;;;14.38;4.93;;;38.90;49.60;;;;;;5064876;28;20039;-80
2022/08/17 07:56:54;;;;;;;14.07;5.20;;;39.10;48.50;;;;;;5064011;28;20041;-80
2022/08/17 07:59:37;;;;;;;9.55;5.07;;;39.30;48.00;;;;;;5066184;28;20063;-80
2022/08/17 08:02:15;;;;;;;7.88;5.10;;;39.20;48.50;;;;;;5064201;28;20093;-79
2022/08/17 08:04:47;;;;;;;15.73;5.60;;;39.20;48.20;;;;;;5065483;28;20021;-79
2022/08/17 08:07:16;;;;;;;10.80;4.50;;;39.20;47.40;;;;;;5065393;28;20094;-80
2022/08/17 08:10:05;;;;;;;11.38;5.28;;;39.10;46.80;;;;;;5065175;28;20405;-80
2022/08/17 08:12:36;;;;;;;8.18;5.03;;;39.30;46.00;;;;;;5068064;28;20032;-80
2022/08/17 08:15:16;;;;;;;8.32;5.35;;;39.10;45.90;;;;;;5069695;28;20039;-80
2022/08/17 08:18:03;;;;;;;8.20;4.45;;;39.10;45.10;;;;;;5069434;28;20142;-81
2022/08/17 08:20:40;;;;;;;9.38;5.00;;;39.10;46.40;;;;;;5069292;28;20025;-80
2022/08/17 08:23:31;;;;;;;9.63;4.65;;;39.30;46.10;;;;;;5069789;28;20056;-81
2022/08/17 08:26:19;;;;;;;8.30;4.22;;;39.10;46.20;;;;;;5069208;28;20497;-80
2022/08/17 08:28:50;;;;;;;11.50;5.50;;;39.20;46.40;;;;;;5068043;28;20056;-80
2022/08/17 08:31:47;;;;;;;9.30;5.00;;;39.40;45.70;;;;;;5069005;28;20087;-81
2022/08/17 08:34:22;;;;;;;13.38;4.55;;;39.60;44.50;;;;;;5067810;28;20079;-80
2022/08/17 08:37:15;;;;;;;8.80;5.53;;;39.30;45.10;;;;;;5067403;28;20024;-80
2022/08/17 08:39:50;;;;;;;11.20;5.20;;;39.60;46.40;;;;;;5068881;28;20131;-81
2022/08/17 08:42:43;;;;;;;7.25;4.68;;;39.70;45.50;;;;;;5068516;28;20016;-80
2022/08/17 08:45:21;;;;;;;8.20;5.43;;;39.40;45.30;;;;;;5067490;28;20020;-80
2022/08/17 08:47:53;;;;;;;10.02;5.30;;;39.20;45.40;;;;;;5067524;28;20382;-80
2022/08/17 08:50:55;;;;;;;8.55;4.70;;;39.10;45.40;;;;;;5067429;28;20035;-80
2022/08/17 08:53:35;;;;;;;8.65;5.43;;;38.90;45.30;;;;;;5067199;28;20025;-81
2022/08/17 08:56:19;;;;;;;12.32;4.57;;;38.70;47.40;;;;;;5066911;28;20086;-80
2022/08/17 08:59:19;;;;;;;10.13;5.18;;;38.80;46.10;;;;;;5067254;28;20046;-81
2022/08/17 09:02:05;;;;;;;9.32;4.72;;;38.90;46.30;;;;;;5059873;28;20568;-81
2022/08/17 09:04:48;;;;;;;6.57;4.53;;;39.00;45.60;;;;;;5067184;28;20123;-80
2022/08/17 09:07:41;;;;;;;9.98;5.13;;;39.20;45.20;;;;;;5068719;28;20033;-80
2022/08/17 09:10:27;;;;;;;9.32;5.50;;;39.40;43.40;;;;;;5068473;28;20078;-80
2022/08/17 09:12:57;;;;;;;13.95;5.07;;;39.20;43.20;;;;;;5068687;28;20119;-80
2022/08/17 09:15:36;;;;;;;8.57;5.22;;;38.90;43.80;;;;;;5067133;28;20025;-81
2022/08/17 09:18:14;;;;;;;12.13;4.80;;;37.90;44.60;;;;;;5066785;28;20082;-80
2022/08/17 09:20:45;;;;;;;8.65;5.07;;;38.20;45.40;;;;;;5067683;28;20107;-80
2022/08/17 09:23:21;;;;;;;8.07;4.43;;;38.40;44.70;;;;;;5066945;28;20036;-82
2022/08/17 09:26:10;;;;;;;7.68;4.00;;;38.70;44.80;;;;;;5066722;28;20032;-81
2022/08/17 09:28:38;;;;;;;8.98;4.85;;;39.10;43.60;;;;;;5067667;28;20044;-81
2022/08/17 09:31:16;;;;;;;9.73;5.35;;;39.20;43.80;;;;;;5066422;28;20032;-81
2022/08/17 09:33:47;;;;;;;10.32;4.82;;;38.90;41.80;;;;;;5066546;28;20025;-81
2022/08/17 09:36:12;;;;;;;8.82;4.82;;;38.60;43.80;;;;;;5068225;28;20021;-81
2022/08/17 09:38:54;;;;;;;9.52;4.55;;;38.70;43.70;;;;;;5066940;28;20234;-81
2022/08/17 09:41:44;;;;;;;10.52;5.20;;;38.90;43.10;;;;;;5067446;28;20487;-81
2022/08/17 09:44:19;;;;;;;6.03;4.10;;;39.10;42.90;;;;;;5066537;28;20033;-81
2022/08/17 09:46:54;;;;;;;13.07;4.75;;;38.90;42.90;;;;;;5067931;28;20611;-80
2022/08/17 09:49:37;;;;;;;9.35;4.95;;;39.10;42.80;;;;;;5067661;28;20094;-81
2022/08/17 09:52:13;;;;;;;8.35;4.80;;;39.10;43.40;;;;;;5067786;28;20532;-80
2022/08/17 09:54:40;;;;;;;5.65;4.82;;;39.10;42.50;;;;;;5066180;28;20051;-80
2022/08/17 09:57:08;;;;;;;10.85;5.07;;;39.30;43.10;;;;;;5067308;28;20029;-81
2022/08/17 09:59:48;;;;;;;7.93;4.18;;;39.50;42.40;;;;;;5068319;28;20028;-82
2022/08/17 10:02:32;;;;;;;10.07;4.57;;;39.10;41.70;;;;;;5068246;28;20059;-81
2022/08/17 10:05:30;;;;;;;7.32;3.70;;;39.40;42.30;;;;;;5065955;28;20051;-81
2022/08/17 10:08:21;;;;;;;7.55;5.28;;;39.80;42.00;;;;;;5052756;28;20045;-81
2022/08/17 10:10:58;;;;;;;7.15;4.15;;;39.90;41.70;;;;;;5066969;28;20489;-81
2022/08/17 10:13:29;;;;;;;9.93;3.97;;;40.00;41.60;;;;;;5065826;28;20097;-81
2022/08/17 10:16:19;;;;;;;12.57;4.25;;;40.20;40.90;;;;;;5067451;28;20024;-81
2022/08/17 10:18:51;;;;;;;12.02;4.00;;;40.10;41.00;;;;;;5066077;28;20025;-80
2022/08/17 10:27:09;;;;;;;11.05;4.13;;;37.90;43.70;;;;;;5067119;28;20428;-80
2022/08/17 10:29:55;;;;;;;9.90;4.43;;;37.30;44.30;;;;;;5065422;28;20126;-80
2022/08/17 10:32:31;;;;;;;5.32;4.55;;;37.10;44.90;;;;;;5066816;28;20299;-78
2022/08/17 10:35:00;;;;;;;10.48;4.40;;;36.70;46.00;;;;;;5066270;28;20028;-80
2022/08/17 10:37:58;;;;;;;13.60;4.80;;;36.50;46.00;;;;;;5066288;28;20122;-80
2022/08/17 10:40:42;;;;;;;12.38;5.10;;;36.30;45.20;;;;;;5065682;28;20505;-80
2022/08/17 10:43:40;;;;;;;10.50;4.43;;;36.00;45.90;;;;;;5066188;28;20628;-80
2022/08/17 10:46:25;;;;;;;9.48;4.45;;;35.70;46.10;;;;;;5065429;28;20492;-81
2022/08/17 10:49:16;;;;;;;6.38;4.18;;;35.50;45.90;;;;;;5070809;28;20555;-80
2022/08/17 10:51:44;;;;;;;7.93;4.43;;;35.30;45.30;;;;;;5086153;28;20413;-80
2022/08/17 10:54:35;;;;;;;7.25;4.18;;;34.90;46.40;;;;;;5087171;28;20028;-80
2022/08/17 10:57:01;;;;;;;12.38;4.65;;;34.80;48.10;;;;;;5082753;28;20493;-81
2022/08/17 10:59:33;;;;;;;10.35;4.45;;;34.70;48.50;;;;;;5065513;28;20497;-81
2022/08/17 11:02:27;;;;;;;8.77;4.65;;;34.60;48.10;;;;;;5065348;28;20031;-81
2022/08/17 11:04:59;;;;;;;13.18;4.93;;;34.60;46.70;;;;;;5065678;28;20493;-80
2022/08/17 11:07:49;;;;;;;7.25;3.85;;;34.60;47.00;;;;;;5065631;28;20021;-81
2022/08/17 11:10:20;;;;;;;10.23;4.82;;;34.50;47.60;;;;;;5065093;28;20025;-81
2022/08/17 11:13:00;;;;;;;8.82;4.30;;;34.60;47.90;;;;;;5066838;28;20099;-79
2022/08/17 11:15:50;;;;;;;8.93;4.32;;;34.60;47.80;;;;;;5065010;28;20056;-80
2022/08/17 11:18:52;;;;;;;7.13;4.25;;;34.60;47.10;;;;;;5066759;28;20055;-81
2022/08/17 11:21:52;;;;;;;7.68;4.10;;;34.60;46.80;;;;;;5049529;28;20029;-81
2022/08/17 11:24:32;;;;;;;6.75;4.05;;;34.60;46.20;;;;;;5065341;28;20020;-82
2022/08/17 11:27:12;;;;;;;9.77;4.28;;;34.70;46.10;;;;;;5065692;28;20099;-81
2022/08/17 11:30:10;;;;;;;6.35;3.65;;;34.70;47.10;;;;;;5065413;28;20131;-80
2022/08/17 11:32:39;;;;;;;4.90;3.72;;;34.50;46.30;;;;;;5066402;28;20033;-82
2022/08/17 11:35:20;;;;;;;6.53;3.67;;;34.60;46.90;;;;;;5065930;28;20033;-81
2022/08/17 11:38:25;;;;;;;6.80;4.15;;;34.70;45.80;;;;;;5065002;28;20056;-80
2022/08/17 11:41:48;;;;;;;5.07;3.85;;;34.90;46.40;;;;;;5065074;28;20051;-81
2022/08/17 11:44:39;;;;;;;5.97;3.63;;;35.00;44.30;;;;;;5008953;28;20580;-81
2022/08/17 11:53:37;;;;;;;4.78;3.30;;;35.00;44.50;;;;;;5070397;28;20097;-81
2022/08/17 11:56:10;;;;;;;7.60;3.92;;;34.90;44.80;;;;;;5070927;28;20090;-79
2022/08/17 11:58:37;;;;;;;5.78;3.80;;;34.90;44.70;;;;;;5068195;28;20021;-80
2022/08/17 12:01:21;;;;;;;9.73;4.20;;;34.90;44.50;;;;;;5069436;28;20029;-81
2022/08/17 12:03:57;;;;;;;4.13;3.45;;;34.90;43.90;;;;;;5069427;28;20025;-80
2022/08/17 12:06:29;;;;;;;6.68;3.75;;;34.90;44.20;;;;;;5068978;28;20405;-81
2022/08/17 12:09:25;;;;;;;9.25;4.35;;;34.90;44.50;;;;;;5068522;28;20090;-81
2022/08/17 12:11:53;;;;;;;6.85;3.40;;;34.80;44.20;;;;;;5070740;28;20020;-80
2022/08/17 12:14:27;;;;;;;4.95;3.65;;;34.80;44.60;;;;;;5068431;28;20029;-81
2022/08/17 12:17:12;;;;;;;7.85;3.85;;;34.90;44.40;;;;;;5070178;28;20029;-81
2022/08/17 12:19:41;;;;;;;6.43;3.45;;;35.00;44.80;;;;;;5070250;28;20086;-81
2022/08/17 12:22:20;;;;;;;5.68;3.40;;;34.90;45.30;;;;;;5081513;28;20066;-81
2022/08/17 12:25:04;;;;;;;4.20;3.40;;;35.00;45.50;;;;;;5090560;28;20077;-81
2022/08/17 12:27:32;;;;;;;7.43;3.42;;;35.20;44.00;;;;;;5089071;28;20143;-81
2022/08/17 12:30:01;;;;;;;3.88;3.47;;;35.10;42.70;;;;;;5077163;28;20031;-80
2022/08/17 12:32:32;;;;;;;3.92;2.60;;;35.00;42.80;;;;;;5069619;28;20039;-81
2022/08/17 12:34:59;;;;;;;3.05;2.47;;;35.10;43.70;;;;;;5070072;28;20032;-81
2022/08/17 12:37:30;;;;;;;3.95;2.53;;;35.20;41.40;;;;;;5068993;28;20024;-81
2022/08/17 12:40:04;;;;;;;6.70;2.95;;;35.30;42.00;;;;;;5069495;28;20055;-82
2022/08/17 12:42:36;;;;;;;3.67;2.80;;;35.40;41.30;;;;;;5068447;28;20052;-82
2022/08/17 12:45:07;;;;;;;3.33;2.95;;;35.50;40.70;;;;;;5068152;28;20028;-82
2022/08/17 12:47:35;;;;;;;2.95;2.65;;;35.50;40.00;;;;;;5068122;28;20058;-82
2022/08/17 12:50:12;;;;;;;4.07;2.75;;;35.50;40.60;;;;;;5069629;28;20028;-80
2022/08/17 12:52:41;;;;;;;5.50;3.25;;;35.60;40.00;;;;;;5068900;28;20029;-82
2022/08/17 12:55:25;;;;;;;3.10;2.30;;;35.50;41.50;;;;;;5069670;28;20674;-82
2022/08/17 12:57:53;;;;;;;4.25;2.90;;;35.50;40.00;;;;;;5068351;28;20028;-82
2022/08/17 13:00:36;;;;;;;3.45;3.15;;;35.40;39.90;;;;;;5067956;28;20029;-81
2022/08/17 13:03:04;;;;;;;4.32;2.97;;;35.50;41.10;;;;;;5069613;28;20028;-81
2022/08/17 13:05:42;;;;;;;3.63;2.55;;;35.40;41.00;;;;;;5068155;28;20139;-82
2022/08/17 13:08:12;;;;;;;3.80;2.72;;;35.40;40.50;;;;;;5067147;28;20548;-82
2022/08/17 13:10:38;;;;;;;2.92;2.65;;;35.30;40.30;;;;;;5068119;28;20059;-81
2022/08/17 13:13:19;;;;;;;3.92;2.97;;;35.20;40.40;;;;;;5069179;28;20021;-81
2022/08/17 13:15:57;;;;;;;3.38;2.90;;;35.20;41.10;;;;;;5068140;28;20013;-81
2022/08/17 13:18:29;;;;;;;5.75;2.75;;;35.10;39.90;;;;;;5067927;28;20047;-81
2022/08/17 13:20:57;;;;;;;2.67;2.28;;;35.00;40.00;;;;;;5067913;28;20025;-81
2022/08/17 13:23:25;;;;;;;2.55;2.05;;;35.00;40.70;;;;;;5069320;28;20480;-82
2022/08/17 13:26:04;;;;;;;5.38;3.28;;;35.10;40.60;;;;;;5067392;28;20032;-81
2022/08/17 13:28:32;;;;;;;3.08;2.60;;;35.10;40.50;;;;;;5068421;28;20044;-82
2022/08/17 13:31:20;;;;;;;5.57;3.08;;;35.00;41.10;;;;;;5067967;28;20029;-82
2022/08/17 13:33:46;;;;;;;7.75;2.55;;;35.00;40.10;;;;;;5067541;28;20036;-82
2022/08/17 13:36:11;;;;;;;3.25;2.58;;;34.90;40.30;;;;;;5067115;28;20047;-82
2022/08/17 13:38:46;;;;;;;3.45;2.67;;;35.00;40.40;;;;;;5068661;28;20037;-82
2022/08/17 13:41:33;;;;;;;3.08;2.35;;;35.10;39.60;;;;;;5068517;28;20086;-82
2022/08/17 13:43:59;;;;;;;18.15;2.10;;;35.10;39.00;;;;;;5067243;28;20025;-82
2022/08/17 13:46:31;;;;;;;3.30;1.83;;;35.10;37.80;;;;;;5067046;28;20036;-82